sensor_id;sensor_type;location;lat;lon;timestamp;temperature;humidity
26035;DHT22;13809;48.632;11.576;2023-09-19T00:03:49;19.90;46.60
26035;DHT22;13809;48.632;11.576;2023-09-19T00:08:52;19.90;46.40
26035;DHT22;13809;48.632;11.576;2023-09-19T00:14:01;19.90;46.40
26035;DHT22;13809;48.632;11.576;2023-09-19T00:19:04;19.90;46.60
26035;DHT22;13809;48.632;11.576;2023-09-19T00:24:11;20.00;46.30
26035;DHT22;13809;48.632;11.576;2023-09-19T00:29:16;20.10;46.30
26035;DHT22;13809;48.632;11.576;2023-09-19T00:34:19;20.20;46.30
26035;DHT22;13809;48.632;11.576;2023-09-19T00:39:22;20.30;46.00
26035;DHT22;13809;48.632;11.576;2023-09-19T00:44:28;20.30;45.90
26035;DHT22;13809;48.632;11.576;2023-09-19T00:49:32;20.40;45.70
26035;DHT22;13809;48.632;11.576;2023-09-19T00:54:36;20.50;45.50
26035;DHT22;13809;48.632;11.576;2023-09-19T00:59:40;20.60;45.40
26035;DHT22;13809;48.632;11.576;2023-09-19T01:04:44;20.60;45.30
26035;DHT22;13809;48.632;11.576;2023-09-19T01:09:48;20.70;45.30
26035;DHT22;13809;48.632;11.576;2023-09-19T01:14:56;20.70;45.10
26035;DHT22;13809;48.632;11.576;2023-09-19T01:20:30;20.80;45.00
26035;DHT22;13809;48.632;11.576;2023-09-19T01:31:20;20.80;44.90
26035;DHT22;13809;48.632;11.576;2023-09-19T01:36:27;20.80;44.80
26035;DHT22;13809;48.632;11.576;2023-09-19T01:41:42;20.80;44.70
26035;DHT22;13809;48.632;11.576;2023-09-19T01:46:49;20.80;44.60
26035;DHT22;13809;48.632;11.576;2023-09-19T01:51:59;20.80;44.60
26035;DHT22;13809;48.632;11.576;2023-09-19T01:57:09;20.80;44.30
26035;DHT22;13809;48.632;11.576;2023-09-19T02:02:15;20.80;44.30
26035;DHT22;13809;48.632;11.576;2023-09-19T02:07:20;20.80;44.30
26035;DHT22;13809;48.632;11.576;2023-09-19T02:12:24;20.80;44.30
26035;DHT22;13809;48.632;11.576;2023-09-19T02:17:28;20.80;44.30
26035;DHT22;13809;48.632;11.576;2023-09-19T02:22:33;20.80;44.20
26035;DHT22;13809;48.632;11.576;2023-09-19T02:27:36;20.80;44.20
26035;DHT22;13809;48.632;11.576;2023-09-19T02:32:40;20.80;44.20
26035;DHT22;13809;48.632;11.576;2023-09-19T02:37:44;20.80;43.90
26035;DHT22;13809;48.632;11.576;2023-09-19T02:42:48;20.80;44.00
26035;DHT22;13809;48.632;11.576;2023-09-19T02:47:53;20.70;44.00
26035;DHT22;13809;48.632;11.576;2023-09-19T02:52:57;20.70;43.80
26035;DHT22;13809;48.632;11.576;2023-09-19T02:58:00;20.70;43.80
26035;DHT22;13809;48.632;11.576;2023-09-19T03:03:08;20.70;43.80
26035;DHT22;13809;48.632;11.576;2023-09-19T03:08:12;20.70;43.70
26035;DHT22;13809;48.632;11.576;2023-09-19T03:13:16;20.70;43.80
26035;DHT22;13809;48.632;11.576;2023-09-19T03:18:21;20.60;43.70
26035;DHT22;13809;48.632;11.576;2023-09-19T03:23:26;20.60;43.60
26035;DHT22;13809;48.632;11.576;2023-09-19T03:28:29;20.70;43.80
26035;DHT22;13809;48.632;11.576;2023-09-19T03:33:34;20.60;43.90
26035;DHT22;13809;48.632;11.576;2023-09-19T03:38:38;20.60;44.20
26035;DHT22;13809;48.632;11.576;2023-09-19T03:43:41;20.60;44.40
26035;DHT22;13809;48.632;11.576;2023-09-19T03:48:46;20.60;44.50
26035;DHT22;13809;48.632;11.576;2023-09-19T03:53:49;20.60;44.60
26035;DHT22;13809;48.632;11.576;2023-09-19T03:58:52;20.60;44.50
26035;DHT22;13809;48.632;11.576;2023-09-19T04:03:57;20.60;44.60
26035;DHT22;13809;48.632;11.576;2023-09-19T04:09:00;20.60;44.80
26035;DHT22;13809;48.632;11.576;2023-09-19T04:14:03;20.60;44.70
26035;DHT22;13809;48.632;11.576;2023-09-19T04:19:08;20.60;44.80
26035;DHT22;13809;48.632;11.576;2023-09-19T04:24:12;20.60;44.80
26035;DHT22;13809;48.632;11.576;2023-09-19T04:29:15;20.60;44.80
26035;DHT22;13809;48.632;11.576;2023-09-19T04:34:22;20.60;44.80
26035;DHT22;13809;48.632;11.576;2023-09-19T04:39:26;20.60;45.10
26035;DHT22;13809;48.632;11.576;2023-09-19T04:44:29;20.60;44.90
26035;DHT22;13809;48.632;11.576;2023-09-19T04:49:34;20.60;44.80
26035;DHT22;13809;48.632;11.576;2023-09-19T04:54:37;20.60;44.80
26035;DHT22;13809;48.632;11.576;2023-09-19T04:59:43;20.60;44.70
26035;DHT22;13809;48.632;11.576;2023-09-19T05:04:47;20.60;44.60
26035;DHT22;13809;48.632;11.576;2023-09-19T05:09:51;20.60;44.80
26035;DHT22;13809;48.632;11.576;2023-09-19T05:14:54;20.60;44.80
26035;DHT22;13809;48.632;11.576;2023-09-19T05:20:02;20.60;44.70
26035;DHT22;13809;48.632;11.576;2023-09-19T05:25:19;20.60;44.80
26035;DHT22;13809;48.632;11.576;2023-09-19T05:30:26;20.60;44.90
26035;DHT22;13809;48.632;11.576;2023-09-19T05:35:33;20.50;44.90
26035;DHT22;13809;48.632;11.576;2023-09-19T05:40:36;20.50;45.20
26035;DHT22;13809;48.632;11.576;2023-09-19T05:45:40;20.40;45.10
26035;DHT22;13809;48.632;11.576;2023-09-19T05:50:45;20.40;45.30
26035;DHT22;13809;48.632;11.576;2023-09-19T05:55:50;20.30;45.50
26035;DHT22;13809;48.632;11.576;2023-09-19T06:00:55;20.30;45.50
26035;DHT22;13809;48.632;11.576;2023-09-19T06:06:01;20.20;45.40
26035;DHT22;13809;48.632;11.576;2023-09-19T06:11:04;20.20;45.60
26035;DHT22;13809;48.632;11.576;2023-09-19T06:16:11;20.30;45.60
26035;DHT22;13809;48.632;11.576;2023-09-19T06:21:15;20.10;45.50
26035;DHT22;13809;48.632;11.576;2023-09-19T06:26:18;20.30;45.90
26035;DHT22;13809;48.632;11.576;2023-09-19T06:31:22;20.30;45.80
26035;DHT22;13809;48.632;11.576;2023-09-19T06:36:29;20.30;45.70
26035;DHT22;13809;48.632;11.576;2023-09-19T06:41:33;20.40;46.00
26035;DHT22;13809;48.632;11.576;2023-09-19T06:46:36;20.50;45.90
26035;DHT22;13809;48.632;11.576;2023-09-19T06:51:43;20.60;45.70
26035;DHT22;13809;48.632;11.576;2023-09-19T06:56:46;20.70;45.60
26035;DHT22;13809;48.632;11.576;2023-09-19T07:01:49;20.70;45.50
26035;DHT22;13809;48.632;11.576;2023-09-19T07:06:56;20.80;45.50
26035;DHT22;13809;48.632;11.576;2023-09-19T07:12:00;21.00;45.70
26035;DHT22;13809;48.632;11.576;2023-09-19T07:17:07;21.10;45.50
26035;DHT22;13809;48.632;11.576;2023-09-19T07:22:12;21.30;45.70
26035;DHT22;13809;48.632;11.576;2023-09-19T07:27:15;21.40;44.70
26035;DHT22;13809;48.632;11.576;2023-09-19T07:32:18;21.50;44.90
26035;DHT22;13809;48.632;11.576;2023-09-19T07:37:23;21.60;44.80
26035;DHT22;13809;48.632;11.576;2023-09-19T07:42:27;21.60;44.40
26035;DHT22;13809;48.632;11.576;2023-09-19T07:47:31;21.70;44.50
26035;DHT22;13809;48.632;11.576;2023-09-19T07:52:36;21.80;44.60
26035;DHT22;13809;48.632;11.576;2023-09-19T07:57:41;21.90;43.70
26035;DHT22;13809;48.632;11.576;2023-09-19T08:02:44;22.00;44.10
26035;DHT22;13809;48.632;11.576;2023-09-19T08:07:53;22.00;44.20
26035;DHT22;13809;48.632;11.576;2023-09-19T08:12:58;22.20;43.80
26035;DHT22;13809;48.632;11.576;2023-09-19T08:18:02;22.30;43.80
26035;DHT22;13809;48.632;11.576;2023-09-19T08:23:06;22.40;43.30
26035;DHT22;13809;48.632;11.576;2023-09-19T08:28:10;22.50;42.80
26035;DHT22;13809;48.632;11.576;2023-09-19T08:33:16;22.60;43.10
26035;DHT22;13809;48.632;11.576;2023-09-19T08:38:20;22.60;43.10
26035;DHT22;13809;48.632;11.576;2023-09-19T08:43:28;22.70;43.30
26035;DHT22;13809;48.632;11.576;2023-09-19T08:48:32;23.00;43.50
26035;DHT22;13809;48.632;11.576;2023-09-19T08:53:42;23.20;42.70
26035;DHT22;13809;48.632;11.576;2023-09-19T08:58:51;23.50;41.30
26035;DHT22;13809;48.632;11.576;2023-09-19T09:03:56;23.60;40.50
26035;DHT22;13809;48.632;11.576;2023-09-19T09:09:02;23.70;41.10
26035;DHT22;13809;48.632;11.576;2023-09-19T09:14:06;23.60;40.10
26035;DHT22;13809;48.632;11.576;2023-09-19T09:19:10;23.50;41.00
26035;DHT22;13809;48.632;11.576;2023-09-19T09:24:30;23.40;40.70
26035;DHT22;13809;48.632;11.576;2023-09-19T09:29:41;23.30;40.90
26035;DHT22;13809;48.632;11.576;2023-09-19T09:34:45;23.10;41.00
26035;DHT22;13809;48.632;11.576;2023-09-19T09:39:52;22.90;40.00
26035;DHT22;13809;48.632;11.576;2023-09-19T09:45:13;22.60;40.20
26035;DHT22;13809;48.632;11.576;2023-09-19T09:50:27;22.20;40.10
26035;DHT22;13809;48.632;11.576;2023-09-19T09:56:01;21.90;40.90
26035;DHT22;13809;48.632;11.576;2023-09-19T10:01:07;21.70;41.90
26035;DHT22;13809;48.632;11.576;2023-09-19T10:06:18;21.60;41.90
26035;DHT22;13809;48.632;11.576;2023-09-19T10:11:34;21.50;42.00
26035;DHT22;13809;48.632;11.576;2023-09-19T10:16:46;21.30;41.80
26035;DHT22;13809;48.632;11.576;2023-09-19T10:21:50;21.10;42.90
26035;DHT22;13809;48.632;11.576;2023-09-19T10:26:55;20.90;42.40
26035;DHT22;13809;48.632;11.576;2023-09-19T10:32:00;20.80;43.00
26035;DHT22;13809;48.632;11.576;2023-09-19T10:37:07;20.80;43.60
26035;DHT22;13809;48.632;11.576;2023-09-19T10:42:16;20.80;44.00
26035;DHT22;13809;48.632;11.576;2023-09-19T10:47:22;20.90;44.20
26035;DHT22;13809;48.632;11.576;2023-09-19T10:52:27;21.00;44.40
26035;DHT22;13809;48.632;11.576;2023-09-19T10:57:32;21.10;44.30
26035;DHT22;13809;48.632;11.576;2023-09-19T11:02:36;21.30;44.10
26035;DHT22;13809;48.632;11.576;2023-09-19T11:07:57;21.30;43.90
26035;DHT22;13809;48.632;11.576;2023-09-19T11:13:23;21.50;43.70
26035;DHT22;13809;48.632;11.576;2023-09-19T11:18:53;21.60;43.60
26035;DHT22;13809;48.632;11.576;2023-09-19T11:24:29;21.80;42.60
26035;DHT22;13809;48.632;11.576;2023-09-19T11:29:40;21.90;43.40
26035;DHT22;13809;48.632;11.576;2023-09-19T11:34:45;22.00;42.40
26035;DHT22;13809;48.632;11.576;2023-09-19T11:40:06;22.10;42.00
26035;DHT22;13809;48.632;11.576;2023-09-19T11:51:01;22.40;42.10
26035;DHT22;13809;48.632;11.576;2023-09-19T11:56:09;22.70;41.30
26035;DHT22;13809;48.632;11.576;2023-09-19T12:01:13;22.90;41.30
26035;DHT22;13809;48.632;11.576;2023-09-19T12:06:25;23.00;40.30
26035;DHT22;13809;48.632;11.576;2023-09-19T12:11:30;23.20;40.00
26035;DHT22;13809;48.632;11.576;2023-09-19T12:16:36;23.30;40.20
26035;DHT22;13809;48.632;11.576;2023-09-19T12:21:41;23.40;40.80
26035;DHT22;13809;48.632;11.576;2023-09-19T12:26:46;23.50;39.60
26035;DHT22;13809;48.632;11.576;2023-09-19T12:31:54;23.60;39.70
26035;DHT22;13809;48.632;11.576;2023-09-19T12:37:08;23.60;39.70
26035;DHT22;13809;48.632;11.576;2023-09-19T12:42:19;23.70;39.10
26035;DHT22;13809;48.632;11.576;2023-09-19T12:47:23;23.70;39.80
26035;DHT22;13809;48.632;11.576;2023-09-19T12:52:34;23.70;39.70
26035;DHT22;13809;48.632;11.576;2023-09-19T12:57:38;23.70;38.10
26035;DHT22;13809;48.632;11.576;2023-09-19T13:03:14;23.80;39.70
26035;DHT22;13809;48.632;11.576;2023-09-19T13:08:27;23.80;39.10
26035;DHT22;13809;48.632;11.576;2023-09-19T13:13:33;23.90;38.80
26035;DHT22;13809;48.632;11.576;2023-09-19T13:18:45;24.00;39.60
26035;DHT22;13809;48.632;11.576;2023-09-19T13:23:52;24.10;37.90
26035;DHT22;13809;48.632;11.576;2023-09-19T13:28:57;24.30;38.20
26035;DHT22;13809;48.632;11.576;2023-09-19T13:34:01;24.30;38.20
26035;DHT22;13809;48.632;11.576;2023-09-19T13:39:05;24.30;37.70
26035;DHT22;13809;48.632;11.576;2023-09-19T13:44:10;24.30;37.70
26035;DHT22;13809;48.632;11.576;2023-09-19T13:49:14;24.30;37.90
26035;DHT22;13809;48.632;11.576;2023-09-19T13:54:22;24.30;37.60
26035;DHT22;13809;48.632;11.576;2023-09-19T13:59:25;24.40;37.00
26035;DHT22;13809;48.632;11.576;2023-09-19T14:04:30;24.50;37.70
26035;DHT22;13809;48.632;11.576;2023-09-19T14:09:35;24.60;37.70
26035;DHT22;13809;48.632;11.576;2023-09-19T14:14:38;24.70;36.70
26035;DHT22;13809;48.632;11.576;2023-09-19T14:19:41;24.70;37.60
26035;DHT22;13809;48.632;11.576;2023-09-19T14:24:48;24.80;37.40
26035;DHT22;13809;48.632;11.576;2023-09-19T14:29:52;25.00;36.80
26035;DHT22;13809;48.632;11.576;2023-09-19T14:34:55;25.10;36.40
26035;DHT22;13809;48.632;11.576;2023-09-19T14:40:00;25.20;35.90
26035;DHT22;13809;48.632;11.576;2023-09-19T14:45:10;25.20;34.90
26035;DHT22;13809;48.632;11.576;2023-09-19T14:50:16;25.20;35.20
26035;DHT22;13809;48.632;11.576;2023-09-19T14:55:21;25.30;34.80
26035;DHT22;13809;48.632;11.576;2023-09-19T15:00:24;25.30;34.40
26035;DHT22;13809;48.632;11.576;2023-09-19T15:05:29;25.20;34.90
26035;DHT22;13809;48.632;11.576;2023-09-19T15:10:34;25.30;34.70
26035;DHT22;13809;48.632;11.576;2023-09-19T15:15:37;25.20;33.60
26035;DHT22;13809;48.632;11.576;2023-09-19T15:20:43;25.30;34.40
26035;DHT22;13809;48.632;11.576;2023-09-19T15:25:49;25.30;33.50
26035;DHT22;13809;48.632;11.576;2023-09-19T15:30:57;25.30;33.10
26035;DHT22;13809;48.632;11.576;2023-09-19T15:36:02;25.20;33.30
26035;DHT22;13809;48.632;11.576;2023-09-19T15:41:12;25.30;34.00
26035;DHT22;13809;48.632;11.576;2023-09-19T15:46:15;25.20;33.10
26035;DHT22;13809;48.632;11.576;2023-09-19T15:51:19;25.30;34.00
26035;DHT22;13809;48.632;11.576;2023-09-19T15:56:24;25.40;33.90
26035;DHT22;13809;48.632;11.576;2023-09-19T16:01:28;25.40;32.80
26035;DHT22;13809;48.632;11.576;2023-09-19T16:06:32;25.40;33.70
26035;DHT22;13809;48.632;11.576;2023-09-19T16:11:37;25.50;33.80
26035;DHT22;13809;48.632;11.576;2023-09-19T16:16:40;25.50;33.00
26035;DHT22;13809;48.632;11.576;2023-09-19T16:21:43;25.50;33.20
26035;DHT22;13809;48.632;11.576;2023-09-19T16:26:48;25.50;33.10
26035;DHT22;13809;48.632;11.576;2023-09-19T16:31:52;25.40;32.30
26035;DHT22;13809;48.632;11.576;2023-09-19T16:36:55;25.40;33.00
26035;DHT22;13809;48.632;11.576;2023-09-19T16:41:59;25.40;32.90
26035;DHT22;13809;48.632;11.576;2023-09-19T16:47:16;25.30;33.20
26035;DHT22;13809;48.632;11.576;2023-09-19T16:52:19;25.30;33.70
26035;DHT22;13809;48.632;11.576;2023-09-19T16:57:24;25.20;33.70
26035;DHT22;13809;48.632;11.576;2023-09-19T17:02:27;25.20;33.90
26035;DHT22;13809;48.632;11.576;2023-09-19T17:07:31;25.20;34.20
26035;DHT22;13809;48.632;11.576;2023-09-19T17:12:36;25.10;34.30
26035;DHT22;13809;48.632;11.576;2023-09-19T17:17:40;25.00;34.40
26035;DHT22;13809;48.632;11.576;2023-09-19T17:22:44;24.90;34.20
26035;DHT22;13809;48.632;11.576;2023-09-19T17:27:49;24.90;34.40
26035;DHT22;13809;48.632;11.576;2023-09-19T17:32:52;24.80;34.30
26035;DHT22;13809;48.632;11.576;2023-09-19T17:37:56;24.70;34.40
26035;DHT22;13809;48.632;11.576;2023-09-19T17:43:00;24.70;34.50
26035;DHT22;13809;48.632;11.576;2023-09-19T17:48:05;24.50;34.00
26035;DHT22;13809;48.632;11.576;2023-09-19T17:53:09;24.40;34.20
26035;DHT22;13809;48.632;11.576;2023-09-19T17:58:13;24.20;34.30
26035;DHT22;13809;48.632;11.576;2023-09-19T18:03:16;24.10;34.30
26035;DHT22;13809;48.632;11.576;2023-09-19T18:08:20;23.90;34.30
26035;DHT22;13809;48.632;11.576;2023-09-19T18:13:25;23.80;35.20
26035;DHT22;13809;48.632;11.576;2023-09-19T18:18:28;23.80;34.80
26035;DHT22;13809;48.632;11.576;2023-09-19T18:23:32;23.60;34.60
26035;DHT22;13809;48.632;11.576;2023-09-19T18:28:37;23.50;34.60
26035;DHT22;13809;48.632;11.576;2023-09-19T18:33:41;23.30;34.40
26035;DHT22;13809;48.632;11.576;2023-09-19T18:38:45;23.00;34.30
26035;DHT22;13809;48.632;11.576;2023-09-19T18:43:51;22.60;34.70
26035;DHT22;13809;48.632;11.576;2023-09-19T18:48:54;22.50;35.40
26035;DHT22;13809;48.632;11.576;2023-09-19T18:53:57;22.30;35.30
26035;DHT22;13809;48.632;11.576;2023-09-19T18:59:15;22.10;35.20
26035;DHT22;13809;48.632;11.576;2023-09-19T19:04:22;21.80;35.70
26035;DHT22;13809;48.632;11.576;2023-09-19T19:09:28;21.60;35.90
26035;DHT22;13809;48.632;11.576;2023-09-19T19:14:34;21.40;36.30
26035;DHT22;13809;48.632;11.576;2023-09-19T19:19:37;21.40;36.60
26035;DHT22;13809;48.632;11.576;2023-09-19T19:24:41;21.40;36.60
26035;DHT22;13809;48.632;11.576;2023-09-19T19:29:46;21.50;36.70
26035;DHT22;13809;48.632;11.576;2023-09-19T19:34:50;21.50;36.90
26035;DHT22;13809;48.632;11.576;2023-09-19T19:39:53;21.50;36.60
26035;DHT22;13809;48.632;11.576;2023-09-19T19:44:58;21.30;36.20
26035;DHT22;13809;48.632;11.576;2023-09-19T19:50:05;21.00;36.80
26035;DHT22;13809;48.632;11.576;2023-09-19T19:55:09;20.70;37.10
26035;DHT22;13809;48.632;11.576;2023-09-19T20:00:14;20.60;37.00
26035;DHT22;13809;48.632;11.576;2023-09-19T20:05:22;20.60;37.00
26035;DHT22;13809;48.632;11.576;2023-09-19T20:10:26;20.50;36.90
26035;DHT22;13809;48.632;11.576;2023-09-19T20:15:30;20.40;36.90
26035;DHT22;13809;48.632;11.576;2023-09-19T20:20:36;20.20;37.20
26035;DHT22;13809;48.632;11.576;2023-09-19T20:25:39;20.10;37.40
26035;DHT22;13809;48.632;11.576;2023-09-19T20:30:44;20.10;37.70
26035;DHT22;13809;48.632;11.576;2023-09-19T20:35:47;20.10;38.10
26035;DHT22;13809;48.632;11.576;2023-09-19T20:40:50;20.20;38.00
26035;DHT22;13809;48.632;11.576;2023-09-19T20:45:55;20.20;37.70
26035;DHT22;13809;48.632;11.576;2023-09-19T20:51:05;20.10;37.80
26035;DHT22;13809;48.632;11.576;2023-09-19T20:56:09;20.00;38.40
26035;DHT22;13809;48.632;11.576;2023-09-19T21:01:15;19.90;37.70
26035;DHT22;13809;48.632;11.576;2023-09-19T21:06:19;19.80;38.10
26035;DHT22;13809;48.632;11.576;2023-09-19T21:11:23;19.70;37.90
26035;DHT22;13809;48.632;11.576;2023-09-19T21:16:29;19.60;38.10
26035;DHT22;13809;48.632;11.576;2023-09-19T21:21:34;19.60;38.60
26035;DHT22;13809;48.632;11.576;2023-09-19T21:26:37;19.70;38.40
26035;DHT22;13809;48.632;11.576;2023-09-19T21:31:42;19.70;38.20
26035;DHT22;13809;48.632;11.576;2023-09-19T21:36:45;19.70;38.30
26035;DHT22;13809;48.632;11.576;2023-09-19T21:41:48;19.60;38.00
26035;DHT22;13809;48.632;11.576;2023-09-19T21:46:53;19.50;38.20
26035;DHT22;13809;48.632;11.576;2023-09-19T21:51:58;19.40;38.80
26035;DHT22;13809;48.632;11.576;2023-09-19T21:57:01;19.40;38.60
26035;DHT22;13809;48.632;11.576;2023-09-19T22:02:06;19.30;38.60
26035;DHT22;13809;48.632;11.576;2023-09-19T22:07:15;19.30;38.90
26035;DHT22;13809;48.632;11.576;2023-09-19T22:12:21;19.30;38.50
26035;DHT22;13809;48.632;11.576;2023-09-19T22:17:29;19.20;38.90
26035;DHT22;13809;48.632;11.576;2023-09-19T22:22:34;19.10;39.00
26035;DHT22;13809;48.632;11.576;2023-09-19T22:27:40;19.10;38.90
26035;DHT22;13809;48.632;11.576;2023-09-19T22:32:49;19.10;38.90
26035;DHT22;13809;48.632;11.576;2023-09-19T22:37:58;19.10;39.10
26035;DHT22;13809;48.632;11.576;2023-09-19T22:43:15;19.00;38.90
26035;DHT22;13809;48.632;11.576;2023-09-19T22:48:22;18.90;38.90
26035;DHT22;13809;48.632;11.576;2023-09-19T22:53:28;18.80;39.50
26035;DHT22;13809;48.632;11.576;2023-09-19T22:58:35;18.60;39.20
26035;DHT22;13809;48.632;11.576;2023-09-19T23:03:39;18.50;39.40
26035;DHT22;13809;48.632;11.576;2023-09-19T23:08:44;18.50;39.90
26035;DHT22;13809;48.632;11.576;2023-09-19T23:13:49;18.40;39.70
26035;DHT22;13809;48.632;11.576;2023-09-19T23:18:55;18.40;39.90
26035;DHT22;13809;48.632;11.576;2023-09-19T23:23:59;18.40;40.00
26035;DHT22;13809;48.632;11.576;2023-09-19T23:29:03;18.40;39.80
26035;DHT22;13809;48.632;11.576;2023-09-19T23:34:11;18.40;39.80
26035;DHT22;13809;48.632;11.576;2023-09-19T23:39:15;18.40;40.00
26035;DHT22;13809;48.632;11.576;2023-09-19T23:44:20;18.50;39.80
26035;DHT22;13809;48.632;11.576;2023-09-19T23:49:26;18.40;39.50
26035;DHT22;13809;48.632;11.576;2023-09-19T23:54:34;18.40;39.80
26035;DHT22;13809;48.632;11.576;2023-09-19T23:59:42;18.40;39.70
